Time;durP1;ratioP1;P1;durP2;ratioP2;P2;SDS_P1;SDS_P2;PMS_P1;PMS_P2;Temp;Humidity;BMP_temperature;BMP_pressure;BME280_temperature;BME280_humidity;BME280_pressure;Samples;Min_cycle;Max_cycle;Signal;HPM_P1;HPM_P2
2022/11/03 00:02:06;;;;;;;32.70;11.80;;;;;;;5.21;80.28;101081.35;102896;1294;25272;-59
2022/11/03 00:04:38;;;;;;;35.00;12.50;;;;;;;5.19;80.26;101080.13;102841;1284;22468;-60
2022/11/03 00:07:10;;;;;;;34.10;12.00;;;;;;;5.16;80.22;101082.30;102803;1283;22479;-59
2022/11/03 00:09:41;;;;;;;32.10;12.10;;;;;;;5.12;80.25;101081.27;102964;1285;25329;-60
2022/11/03 00:12:13;;;;;;;35.70;13.80;;;;;;;5.08;80.31;101085.45;102805;1286;24425;-61
2022/11/03 00:14:45;;;;;;;32.40;12.30;;;;;;;5.04;80.35;101084.33;102762;1283;22576;-60
2022/11/03 00:17:16;;;;;;;32.90;12.30;;;;;;;5.02;80.37;101088.96;102995;1278;24324;-57
2022/11/03 00:19:48;;;;;;;37.50;13.30;;;;;;;4.97;80.31;101093.45;103281;1278;22585;-57
2022/11/03 00:22:19;;;;;;;33.30;13.50;;;;;;;4.93;80.42;101085.60;103713;1278;23172;-59
2022/11/03 00:24:50;;;;;;;34.20;13.10;;;;;;;4.90;80.41;101088.03;103331;1278;22515;-59
2022/11/03 00:27:22;;;;;;;28.40;11.40;;;;;;;4.87;80.45;101086.58;103269;1277;22547;-59
2022/11/03 00:29:53;;;;;;;38.50;13.60;;;;;;;4.85;80.57;101079.73;103384;1279;25614;-60
2022/11/03 00:32:25;;;;;;;31.00;12.40;;;;;;;4.84;80.55;101080.77;103316;1295;24527;-60
2022/11/03 00:34:57;;;;;;;32.00;11.90;;;;;;;4.80;80.61;101082.98;103252;1300;25358;-59
2022/11/03 00:37:28;;;;;;;35.60;13.00;;;;;;;4.74;80.56;101080.14;103218;1279;22470;-60
2022/11/03 00:40:00;;;;;;;32.60;12.80;;;;;;;4.70;80.55;101077.77;103272;1278;22516;-58
2022/11/03 00:42:33;;;;;;;35.00;13.10;;;;;;;4.63;80.58;101071.86;103288;1289;24341;-58
2022/11/03 00:45:06;;;;;;;34.40;12.80;;;;;;;4.58;80.54;101072.80;103367;1295;23179;-60
2022/11/03 00:48:28;;;;;;;33.00;12.80;;;;;;;4.52;80.41;101074.16;103219;1274;22459;-59
2022/11/03 00:50:30;;;;;;;32.20;12.30;;;;;;;4.46;80.44;101074.27;103182;1277;22433;-58
2022/11/03 00:53:01;;;;;;;31.90;13.10;;;;;;;4.41;80.41;101073.38;103309;1279;24288;-59
2022/11/03 00:55:33;;;;;;;33.00;13.60;;;;;;;4.37;80.44;101074.08;103411;1291;22591;-61
2022/11/03 00:58:04;;;;;;;33.50;12.60;;;;;;;4.33;80.48;101067.73;103628;1301;22594;-59
2022/11/03 01:00:35;;;;;;;32.20;13.60;;;;;;;4.30;80.53;101065.17;103310;1279;22473;-59
2022/11/03 01:03:08;;;;;;;32.90;13.50;;;;;;;4.25;80.56;101068.08;103247;1279;22472;-59
2022/11/03 01:08:36;;;;;;;28.90;11.80;;;;;;;4.18;80.71;101069.52;103165;1295;22482;-57
2022/11/03 01:13:59;;;;;;;32.50;11.60;;;;;;;4.09;80.68;101068.45;103128;1301;24320;-59
2022/11/03 01:16:31;;;;;;;29.00;11.70;;;;;;;4.06;80.69;101067.80;103673;1279;22458;-59
2022/11/03 01:19:02;;;;;;;28.20;11.20;;;;;;;4.01;80.69;101069.42;103244;1303;25375;-59
2022/11/03 01:21:34;;;;;;;35.30;12.00;;;;;;;3.97;80.77;101073.02;103192;1302;22449;-59
2022/11/03 01:24:08;;;;;;;32.00;11.50;;;;;;;3.93;80.71;101067.63;103239;1279;22706;-59
2022/11/03 01:26:40;;;;;;;27.20;11.20;;;;;;;3.90;80.80;101069.83;103239;1285;22456;-59
2022/11/03 01:29:12;;;;;;;29.70;10.30;;;;;;;3.86;80.95;101069.00;103307;1300;22459;-57
2022/11/03 01:31:43;;;;;;;28.10;10.60;;;;;;;3.84;80.84;101061.12;103323;1303;22467;-59
2022/11/03 01:34:17;;;;;;;26.70;11.00;;;;;;;3.81;80.74;101065.65;103183;1288;25217;-58
2022/11/03 01:36:48;;;;;;;25.30;9.50;;;;;;;3.77;80.93;101068.08;103353;1279;22492;-59
2022/11/03 01:39:20;;;;;;;25.90;9.90;;;;;;;3.73;80.90;101067.74;103362;1303;22459;-59
2022/11/03 01:41:53;;;;;;;26.70;10.20;;;;;;;3.68;80.89;101065.57;103580;1278;22462;-61
2022/11/03 01:44:46;;;;;;;24.20;8.50;;;;;;;3.64;80.91;101069.80;103571;1278;22452;-59
2022/11/03 01:47:25;;;;;;;23.30;8.50;;;;;;;3.61;81.00;101068.34;103275;1303;22464;-59
2022/11/03 01:50:00;;;;;;;25.70;8.90;;;;;;;3.58;80.91;101068.85;103389;1297;22465;-59
2022/11/03 01:52:35;;;;;;;34.80;11.20;;;;;;;3.55;80.92;101069.68;103412;1279;22528;-57
2022/11/03 01:55:12;;;;;;;28.90;10.30;;;;;;;3.52;81.02;101068.84;103225;1275;24327;-58
2022/11/03 01:57:50;;;;;;;30.40;10.10;;;;;;;3.48;80.91;101060.21;103218;1278;25126;-58
2022/11/03 02:00:22;;;;;;;28.40;10.20;;;;;;;3.45;80.90;101059.21;103240;1303;22572;-57
2022/11/03 02:02:54;;;;;;;25.50;9.80;;;;;;;3.43;80.94;101057.58;103173;1279;22448;-58
2022/11/03 02:05:27;;;;;;;29.00;9.80;;;;;;;3.40;80.92;101053.52;103267;1285;22460;-57
2022/11/03 02:08:05;;;;;;;28.90;10.80;;;;;;;3.36;81.06;101054.19;103179;1300;22673;-57
2022/11/03 02:10:37;;;;;;;28.90;9.80;;;;;;;3.32;81.02;101054.22;103356;1303;22576;-58
2022/11/03 02:13:17;;;;;;;34.40;10.80;;;;;;;3.31;80.97;101055.02;103268;1279;22455;-57
2022/11/03 02:15:49;;;;;;;26.00;9.90;;;;;;;3.28;81.12;101052.84;103210;1303;22484;-56
2022/11/03 02:18:24;;;;;;;25.30;9.10;;;;;;;3.25;81.17;101052.16;103253;1285;22492;-60
2022/11/03 02:21:06;;;;;;;26.90;8.60;;;;;;;3.23;81.28;101047.70;103339;1279;22467;-59
2022/11/03 02:23:43;;;;;;;25.10;8.80;;;;;;;3.21;81.25;101043.45;103319;1302;25228;-57
2022/11/03 02:26:16;;;;;;;25.90;8.70;;;;;;;3.20;81.40;101043.63;103196;1277;22457;-60
2022/11/03 02:28:48;;;;;;;26.20;9.20;;;;;;;3.20;81.45;101042.21;103211;1278;22891;-58
2022/11/03 02:31:29;;;;;;;25.10;8.40;;;;;;;3.19;81.56;101036.16;103322;1277;25268;-60
2022/11/03 02:34:08;;;;;;;23.10;7.60;;;;;;;3.17;81.62;101036.64;103301;1279;22455;-59
2022/11/03 02:36:45;;;;;;;24.00;7.10;;;;;;;3.15;81.73;101035.09;103301;1282;22457;-58
2022/11/03 02:39:24;;;;;;;26.00;7.10;;;;;;;3.15;81.83;101029.02;103213;1278;24329;-57
2022/11/03 02:41:59;;;;;;;27.00;7.00;;;;;;;3.14;81.88;101031.00;103367;1279;24328;-59
2022/11/03 02:44:32;;;;;;;23.10;7.90;;;;;;;3.12;81.98;101033.85;103293;1277;25322;-60
2022/11/03 02:47:07;;;;;;;26.10;6.60;;;;;;;3.10;82.13;101026.85;103311;1277;22463;-58
2022/11/03 02:49:45;;;;;;;22.10;7.20;;;;;;;3.09;82.10;101025.05;103409;1303;24286;-59
2022/11/03 02:52:38;;;;;;;25.90;6.70;;;;;;;3.08;82.10;101024.51;103240;1288;22492;-59
2022/11/03 02:55:19;;;;;;;22.30;6.60;;;;;;;3.05;82.08;101022.58;103227;1278;25259;-57
2022/11/03 02:57:56;;;;;;;27.80;7.30;;;;;;;3.02;82.31;101023.40;103501;1278;22550;-58
2022/11/03 03:00:30;;;;;;;28.00;7.20;;;;;;;2.99;82.22;101023.81;103554;1279;25288;-59
2022/11/03 03:03:08;;;;;;;20.70;7.60;;;;;;;2.98;81.98;101021.38;103479;1277;24405;-58
2022/11/03 03:05:43;;;;;;;24.50;6.40;;;;;;;2.95;82.00;101023.30;103481;1296;27657;-57
2022/11/03 03:08:16;;;;;;;25.20;6.40;;;;;;;2.91;82.02;101025.08;103284;1277;22476;-57
2022/11/03 03:10:49;;;;;;;23.40;6.90;;;;;;;2.88;82.12;101017.85;103292;1303;22462;-59
2022/11/03 03:13:22;;;;;;;19.50;6.40;;;;;;;2.85;82.01;101012.13;103441;1279;22460;-60
2022/11/03 03:16:06;;;;;;;25.90;6.70;;;;;;;2.83;81.90;101010.34;103309;1303;22456;-59
2022/11/03 03:18:48;;;;;;;20.00;7.10;;;;;;;2.80;81.94;101005.23;103282;1285;22477;-59
2022/11/03 03:21:25;;;;;;;21.50;6.40;;;;;;;2.76;81.95;101008.34;103459;1274;22481;-59
2022/11/03 03:24:02;;;;;;;26.30;7.10;;;;;;;2.72;82.04;101001.38;103484;1302;22527;-58
2022/11/03 03:26:38;;;;;;;26.60;7.70;;;;;;;2.69;81.98;101005.58;103273;1288;25201;-58
2022/11/03 03:29:15;;;;;;;24.60;7.50;;;;;;;2.67;82.04;101003.00;103300;1303;24341;-60
2022/11/03 03:31:53;;;;;;;25.40;7.90;;;;;;;2.66;82.06;100999.70;103653;1303;22473;-59
2022/11/03 03:34:27;;;;;;;28.40;7.60;;;;;;;2.64;82.11;100991.52;103325;1299;22497;-59
2022/11/03 03:37:01;;;;;;;18.70;7.30;;;;;;;2.61;82.37;100984.69;103332;1278;22594;-58
2022/11/03 03:39:37;;;;;;;21.80;7.00;;;;;;;2.58;82.24;100992.28;103302;1303;25493;-59
2022/11/03 03:42:11;;;;;;;25.30;7.70;;;;;;;2.54;82.15;100991.30;103396;1288;25395;-59
2022/11/03 03:44:46;;;;;;;21.30;6.90;;;;;;;2.51;82.14;100986.13;103173;1279;22454;-60
2022/11/03 03:47:23;;;;;;;24.30;8.20;;;;;;;2.50;82.25;100982.35;103292;1277;25269;-59
2022/11/03 03:49:54;;;;;;;23.50;8.20;;;;;;;2.50;82.37;100985.80;103751;1301;23204;-59
2022/11/03 03:52:26;;;;;;;27.80;8.70;;;;;;;2.50;82.49;100987.08;103682;1277;24320;-58
2022/11/03 03:54:58;;;;;;;28.00;9.60;;;;;;;2.48;82.68;100986.85;103298;1277;22592;-58
2022/11/03 03:57:32;;;;;;;25.40;9.00;;;;;;;2.46;82.67;100987.25;103284;1277;22464;-59
2022/11/03 04:00:04;;;;;;;25.30;9.40;;;;;;;2.45;82.85;100980.50;103336;1279;25168;-58
2022/11/03 04:02:36;;;;;;;22.40;9.10;;;;;;;2.44;82.75;100978.15;103449;1291;25284;-59
2022/11/03 04:05:08;;;;;;;23.80;9.10;;;;;;;2.43;82.78;100977.36;103365;1297;22591;-58
2022/11/03 04:07:49;;;;;;;14.30;4.90;;;;;;;2.42;82.75;100978.79;103477;1306;25219;-58
2022/11/03 04:10:20;;;;;;;;;;;;;;;2.40;82.72;100986.05;103216;1284;24330;-59
2022/11/03 04:24:08;;;;;;;26.60;9.60;;;;;;;2.30;82.88;100976.52;103269;1290;24344;-59
2022/11/03 04:26:40;;;;;;;31.10;10.30;;;;;;;2.27;82.85;100972.05;103361;1285;25391;-59
2022/11/03 04:29:12;;;;;;;23.70;8.70;;;;;;;2.25;82.82;100978.29;103323;1280;22461;-60
2022/11/03 04:31:44;;;;;;;24.70;8.10;;;;;;;2.24;82.90;100975.23;103222;1294;25215;-59
2022/11/03 04:34:16;;;;;;;22.20;8.10;;;;;;;2.23;82.91;100975.78;103214;1301;25347;-59
2022/11/03 04:36:48;;;;;;;23.10;8.80;;;;;;;2.22;83.06;100969.27;103250;1291;24435;-59
2022/11/03 04:39:21;;;;;;;23.90;8.30;;;;;;;2.21;83.07;100963.61;103514;1278;22474;-61
2022/11/03 04:41:52;;;;;;;24.80;7.00;;;;;;;2.22;83.14;100962.26;104014;1284;26513;-59
2022/11/03 04:44:24;;;;;;;22.60;7.50;;;;;;;2.21;83.21;100958.73;103982;1285;22468;-62
2022/11/03 04:46:56;;;;;;;24.80;7.60;;;;;;;2.21;83.18;100953.52;103956;1277;23825;-59
2022/11/03 04:49:29;;;;;;;23.70;9.40;;;;;;;2.22;83.24;100951.86;104105;1276;25905;-59
2022/11/03 04:52:01;;;;;;;28.90;7.20;;;;;;;2.21;83.39;100951.79;103992;1280;22469;-61
2022/11/03 04:54:32;;;;;;;22.60;7.90;;;;;;;2.21;83.42;100951.71;103871;1279;24232;-58
2022/11/03 04:57:11;;;;;;;21.50;7.00;;;;;;;2.21;83.41;100950.69;103886;1296;22481;-58
2022/11/03 04:59:44;;;;;;;22.00;7.00;;;;;;;2.21;83.42;100952.20;103834;1285;22468;-58
2022/11/03 05:02:19;;;;;;;20.90;7.00;;;;;;;2.21;83.45;100952.59;104049;1282;22493;-57
2022/11/03 05:04:50;;;;;;;23.30;7.90;;;;;;;2.20;83.47;100945.42;103918;1276;24260;-55
2022/11/03 05:07:31;;;;;;;22.00;6.90;;;;;;;2.19;83.48;100949.67;103825;1285;24287;-57
2022/11/03 05:10:03;;;;;;;28.60;7.00;;;;;;;2.16;83.44;100950.41;103980;1274;24243;-56
2022/11/03 05:12:35;;;;;;;21.30;6.50;;;;;;;2.14;83.39;100944.77;103873;1280;23556;-58
2022/11/03 05:15:22;;;;;;;24.20;7.80;;;;;;;2.13;83.47;100941.85;103855;1303;25362;-58
2022/11/03 05:17:55;;;;;;;21.30;6.30;;;;;;;2.11;83.37;100935.41;103914;1300;22482;-57
2022/11/03 05:20:35;;;;;;;21.40;6.70;;;;;;;2.07;83.30;100931.83;103887;1280;22422;-56
2022/11/03 05:23:11;;;;;;;20.40;6.10;;;;;;;2.04;83.48;100933.50;103983;1271;22567;-58
2022/11/03 05:25:45;;;;;;;22.80;7.50;;;;;;;2.02;83.40;100933.36;103817;1275;22985;-57
2022/11/03 05:28:21;;;;;;;22.90;6.60;;;;;;;1.99;83.43;100933.30;103858;1279;23876;-57
2022/11/03 05:30:55;;;;;;;22.00;7.10;;;;;;;1.99;83.43;100925.98;103791;1271;22474;-61
2022/11/03 05:33:32;;;;;;;22.10;6.80;;;;;;;2.01;83.59;100924.23;103681;1277;24243;-60
2022/11/03 05:36:08;;;;;;;25.10;8.90;;;;;;;2.04;83.69;100928.16;103748;1276;22484;-61
2022/11/03 05:38:39;;;;;;;27.30;8.50;;;;;;;2.05;83.74;100926.81;103793;1279;22598;-61
2022/11/03 05:41:23;;;;;;;26.50;9.90;;;;;;;2.04;83.81;100923.20;103585;1282;24977;-60
2022/11/03 05:43:59;;;;;;;32.60;9.00;;;;;;;2.04;83.69;100920.36;104743;1296;24296;-60
2022/11/03 05:46:34;;;;;;;33.50;9.30;;;;;;;2.02;83.73;100921.55;103851;1284;22932;-60
2022/11/03 05:49:07;;;;;;;32.40;10.00;;;;;;;2.00;83.70;100919.45;103711;1283;22472;-60
2022/11/03 05:51:42;;;;;;;27.30;8.90;;;;;;;1.99;83.76;100926.14;103669;1301;22482;-61
2022/11/03 05:54:20;;;;;;;31.40;9.50;;;;;;;1.96;83.67;100924.34;103832;1278;22470;-59
2022/11/03 05:56:53;;;;;;;31.20;8.60;;;;;;;1.95;83.78;100921.77;103783;1277;26684;-61
2022/11/03 05:59:30;;;;;;;27.10;7.80;;;;;;;1.94;83.74;100915.86;104282;1277;23215;-61
2022/11/03 06:02:06;;;;;;;31.90;9.70;;;;;;;1.93;83.78;100914.45;103825;1300;22456;-59
2022/11/03 06:04:40;;;;;;;30.70;9.50;;;;;;;1.93;83.86;100919.35;103698;1301;22477;-58
2022/11/03 06:07:23;;;;;;;30.40;9.70;;;;;;;1.90;83.96;100914.40;103923;1301;22458;-59
2022/11/03 06:09:56;;;;;;;32.00;9.70;;;;;;;1.90;84.00;100912.13;103724;1272;22941;-61
2022/11/03 06:12:30;;;;;;;25.60;9.80;;;;;;;1.89;84.09;100913.16;103758;1277;22579;-61
2022/11/03 06:15:02;;;;;;;26.40;10.70;;;;;;;1.88;84.12;100921.34;103757;1292;22495;-61
2022/11/03 06:17:35;;;;;;;28.10;10.20;;;;;;;1.89;84.27;100922.91;103850;1296;22476;-60
2022/11/03 06:20:16;;;;;;;28.00;10.00;;;;;;;1.91;84.34;100924.63;103841;1303;23319;-61
2022/11/03 06:22:51;;;;;;;24.60;9.00;;;;;;;1.93;84.62;100922.25;103669;1301;22948;-59
2022/11/03 06:25:28;;;;;;;27.60;10.90;;;;;;;1.98;84.90;100921.52;103804;1271;25193;-61
2022/11/03 06:28:03;;;;;;;31.30;11.70;;;;;;;2.02;85.11;100923.36;103885;1300;22525;-61
2022/11/03 06:30:39;;;;;;;31.70;12.30;;;;;;;2.06;85.38;100917.44;103924;1301;25417;-60
2022/11/03 06:33:16;;;;;;;26.80;10.80;;;;;;;2.12;85.59;100923.38;104117;1278;25701;-61
2022/11/03 06:35:48;;;;;;;27.50;11.40;;;;;;;2.17;85.77;100923.02;103867;1280;22797;-60
2022/11/03 06:38:23;;;;;;;36.40;12.50;;;;;;;2.20;85.86;100927.80;103925;1290;26631;-60
2022/11/03 06:40:57;;;;;;;32.40;11.50;;;;;;;2.24;85.97;100930.11;103899;1303;22468;-59
2022/11/03 06:43:44;;;;;;;27.30;10.80;;;;;;;2.29;86.16;100932.98;104040;1284;22952;-61
2022/11/03 06:46:19;;;;;;;28.80;9.90;;;;;;;2.32;86.24;100932.64;104388;1279;25437;-60
2022/11/03 06:48:52;;;;;;;33.80;9.80;;;;;;;2.35;86.39;100930.89;103934;1284;22498;-59
2022/11/03 06:51:27;;;;;;;29.60;9.30;;;;;;;2.40;86.62;100932.19;103806;1301;24395;-59
2022/11/03 06:54:01;;;;;;;25.00;9.40;;;;;;;2.46;86.81;100930.10;103838;1296;25180;-59
2022/11/03 06:56:38;;;;;;;29.50;10.40;;;;;;;2.51;86.83;100928.40;103918;1278;22489;-61
2022/11/03 06:59:14;;;;;;;33.50;9.80;;;;;;;2.58;87.10;100934.07;103945;1277;24059;-60
2022/11/03 07:01:49;;;;;;;25.90;10.40;;;;;;;2.66;87.35;100932.66;103810;1302;22466;-61
2022/11/03 07:04:28;;;;;;;33.70;13.50;;;;;;;2.73;87.62;100930.71;103884;1286;23859;-59
2022/11/03 07:07:04;;;;;;;31.70;11.30;;;;;;;2.81;87.64;100930.95;103877;1277;22478;-61
2022/11/03 07:09:35;;;;;;;30.50;10.00;;;;;;;2.89;87.84;100935.11;103804;1302;22624;-61
2022/11/03 07:12:15;;;;;;;33.40;12.00;;;;;;;2.96;88.26;100929.37;103868;1303;22450;-59
2022/11/03 07:14:47;;;;;;;29.10;10.70;;;;;;;3.05;88.41;100923.13;103948;1301;24260;-59
2022/11/03 07:17:22;;;;;;;28.70;9.90;;;;;;;3.12;88.30;100921.77;103838;1294;22482;-61
2022/11/03 07:19:54;;;;;;;30.90;12.60;;;;;;;3.19;88.54;100919.31;103880;1302;25228;-59
2022/11/03 07:22:27;;;;;;;30.50;9.90;;;;;;;3.26;88.55;100916.15;103867;1295;22468;-61
2022/11/03 07:25:03;;;;;;;29.80;10.80;;;;;;;3.32;88.91;100915.13;103871;1279;24270;-59
2022/11/03 07:27:38;;;;;;;32.40;10.70;;;;;;;3.41;89.04;100918.10;103940;1301;22474;-59
2022/11/03 07:30:18;;;;;;;28.20;9.90;;;;;;;3.48;89.24;100914.69;104185;1301;22698;-61
2022/11/03 07:32:52;;;;;;;27.30;10.50;;;;;;;3.55;89.22;100916.09;103850;1302;25280;-62
2022/11/03 07:35:32;;;;;;;30.40;10.30;;;;;;;3.63;89.61;100913.77;103905;1296;22493;-59
2022/11/03 07:38:10;;;;;;;32.10;11.60;;;;;;;3.70;89.70;100913.45;103958;1303;25391;-61
2022/11/03 07:40:42;;;;;;;32.10;9.80;;;;;;;3.78;89.73;100913.17;103921;1295;22449;-60
2022/11/03 07:43:18;;;;;;;33.80;13.30;;;;;;;3.85;90.13;100913.70;103984;1282;22483;-60
2022/11/03 07:45:53;;;;;;;29.90;10.40;;;;;;;3.95;90.57;100908.97;103946;1283;23079;-61
2022/11/03 07:48:27;;;;;;;27.50;10.90;;;;;;;4.04;90.61;100908.11;103925;1300;24267;-60
2022/11/03 07:51:01;;;;;;;29.20;10.90;;;;;;;4.13;90.66;100898.20;103894;1291;24230;-61
2022/11/03 07:53:40;;;;;;;35.00;12.20;;;;;;;4.22;90.91;100894.89;103885;1299;22466;-62
2022/11/03 07:56:20;;;;;;;31.30;12.30;;;;;;;4.31;91.16;100892.11;103885;1303;25991;-59
2022/11/03 07:58:59;;;;;;;27.20;11.60;;;;;;;4.42;91.54;100889.89;103878;1301;26472;-58
2022/11/03 08:01:35;;;;;;;28.10;10.60;;;;;;;4.51;91.50;100886.48;104041;1301;22892;-59
2022/11/03 08:04:12;;;;;;;31.20;11.60;;;;;;;4.61;91.94;100887.80;103897;1299;25374;-62
2022/11/03 08:06:45;;;;;;;30.20;10.80;;;;;;;4.72;92.19;100883.23;104034;1278;26591;-62
2022/11/03 08:09:17;;;;;;;34.70;12.40;;;;;;;4.83;92.20;100878.77;103904;1285;25372;-60
2022/11/03 08:11:49;;;;;;;29.40;11.10;;;;;;;4.92;92.20;100879.93;103835;1302;24343;-59
2022/11/03 08:14:20;;;;;;;41.70;10.60;;;;;;;5.04;92.89;100873.70;103846;1275;23456;-59
2022/11/03 08:16:52;;;;;;;28.10;8.90;;;;;;;5.15;92.83;100871.57;103906;1275;24304;-59
2022/11/03 08:19:24;;;;;;;29.60;9.60;;;;;;;5.27;93.15;100865.77;103897;1277;24261;-59
2022/11/03 08:21:55;;;;;;;25.70;8.60;;;;;;;5.40;93.23;100864.61;103876;1279;23908;-61
2022/11/03 08:24:28;;;;;;;26.00;8.90;;;;;;;5.51;93.20;100852.67;103831;1303;25377;-59
2022/11/03 08:26:59;;;;;;;26.70;9.90;;;;;;;5.62;93.25;100848.55;103865;1272;22455;-61
2022/11/03 08:29:31;;;;;;;29.30;8.90;;;;;;;5.73;93.31;100851.84;103905;1303;22465;-59
2022/11/03 08:32:03;;;;;;;26.80;8.40;;;;;;;5.86;93.28;100849.36;103962;1300;24270;-59
2022/11/03 08:34:35;;;;;;;28.50;8.80;;;;;;;5.97;93.25;100841.27;103799;1303;25323;-60
2022/11/03 08:37:07;;;;;;;27.30;7.30;;;;;;;6.08;93.47;100839.88;103504;1294;22491;-59
2022/11/03 08:39:38;;;;;;;23.30;7.30;;;;;;;6.23;93.69;100838.93;103366;1301;22475;-59
2022/11/03 08:42:10;;;;;;;21.20;6.30;;;;;;;6.35;93.38;100836.57;103437;1294;25464;-59
2022/11/03 08:44:42;;;;;;;25.00;5.20;;;;;;;6.45;93.21;100828.74;103398;1278;22510;-60
2022/11/03 08:47:14;;;;;;;19.50;4.70;;;;;;;6.57;93.27;100822.02;103398;1277;23093;-58
2022/11/03 08:49:46;;;;;;;22.50;4.70;;;;;;;6.69;93.23;100815.68;103349;1293;22465;-58
2022/11/03 08:52:18;;;;;;;17.80;6.20;;;;;;;6.79;93.38;100809.43;103416;1277;24699;-60
2022/11/03 08:54:50;;;;;;;16.90;4.80;;;;;;;6.91;93.37;100805.94;103401;1300;24438;-60
2022/11/03 08:57:22;;;;;;;23.60;5.00;;;;;;;7.02;93.17;100799.25;103332;1293;24487;-61
2022/11/03 08:59:54;;;;;;;15.30;3.80;;;;;;;7.12;92.86;100801.71;103644;1285;25306;-61
2022/11/03 09:02:26;;;;;;;15.40;4.40;;;;;;;7.25;92.79;100793.48;103459;1279;24461;-60
2022/11/03 09:04:57;;;;;;;18.70;3.70;;;;;;;7.35;92.63;100786.98;103296;1278;22594;-60
2022/11/03 09:07:29;;;;;;;14.70;3.50;;;;;;;7.48;92.74;100780.41;103638;1294;22502;-60
2022/11/03 09:10:00;;;;;;;13.50;3.00;;;;;;;7.58;92.50;100779.99;103448;1278;22463;-62
2022/11/03 09:12:32;;;;;;;16.30;2.90;;;;;;;7.74;92.26;100776.95;103336;1299;22557;-61
2022/11/03 09:15:06;;;;;;;20.30;4.40;;;;;;;7.92;92.08;100769.58;103366;1295;22695;-60
2022/11/03 09:17:37;;;;;;;18.60;4.30;;;;;;;8.08;91.83;100767.27;103439;1291;22477;-59
2022/11/03 09:20:10;;;;;;;14.70;3.60;;;;;;;8.24;91.46;100769.85;103332;1300;22601;-60
2022/11/03 09:22:42;;;;;;;13.70;3.60;;;;;;;8.34;91.31;100754.48;103446;1303;22454;-61
2022/11/03 09:25:13;;;;;;;13.20;2.60;;;;;;;8.49;90.86;100753.64;103298;1278;22478;-61
2022/11/03 09:27:45;;;;;;;15.10;2.70;;;;;;;8.62;90.74;100752.44;103404;1279;22577;-59
2022/11/03 09:30:17;;;;;;;16.20;2.00;;;;;;;8.75;90.32;100750.27;103409;1276;22515;-58
2022/11/03 09:32:49;;;;;;;20.50;4.60;;;;;;;8.90;90.05;100740.55;103840;1300;22481;-60
2022/11/03 09:35:20;;;;;;;15.30;2.70;;;;;;;9.06;89.55;100738.04;103454;1271;24116;-56
2022/11/03 09:37:52;;;;;;;20.00;2.80;;;;;;;9.24;89.00;100733.75;103384;1285;24334;-56
2022/11/03 09:40:24;;;;;;;13.10;2.60;;;;;;;9.41;88.62;100729.27;103405;1296;24257;-60
2022/11/03 09:42:56;;;;;;;10.30;2.10;;;;;;;9.52;88.41;100723.30;103389;1274;22464;-57
2022/11/03 09:45:28;;;;;;;13.60;2.20;;;;;;;9.60;88.27;100720.91;103396;1302;22479;-60
2022/11/03 09:47:59;;;;;;;11.80;1.90;;;;;;;9.68;88.21;100716.34;103340;1301;25367;-56
2022/11/03 09:50:31;;;;;;;12.70;2.10;;;;;;;9.77;87.77;100714.29;103331;1303;22580;-58
2022/11/03 09:53:03;;;;;;;15.80;1.80;;;;;;;9.86;87.23;100712.64;103504;1277;25482;-57
2022/11/03 09:55:35;;;;;;;11.00;1.80;;;;;;;9.91;86.98;100712.49;103567;1300;22462;-56
2022/11/03 09:58:14;;;;;;;14.60;1.50;;;;;;;9.97;86.80;100709.85;103442;1300;22462;-56
2022/11/03 10:00:46;;;;;;;8.50;1.70;;;;;;;10.04;86.69;100707.30;103378;1279;24301;-60
2022/11/03 10:03:19;;;;;;;9.80;1.40;;;;;;;10.07;86.63;100706.48;103332;1300;22476;-58
2022/11/03 10:05:51;;;;;;;12.00;1.60;;;;;;;10.08;86.43;100699.65;103459;1276;22644;-59
2022/11/03 10:08:26;;;;;;;12.40;1.30;;;;;;;10.11;86.50;100699.80;103414;1278;22591;-59
2022/11/03 10:11:00;;;;;;;7.50;1.40;;;;;;;10.17;86.10;100697.20;103447;1300;22459;-58
2022/11/03 10:13:37;;;;;;;7.90;1.40;;;;;;;10.22;86.02;100694.65;103450;1277;25139;-60
2022/11/03 10:16:12;;;;;;;8.90;1.80;;;;;;;10.25;85.68;100689.05;103456;1278;22474;-59
2022/11/03 10:18:44;;;;;;;15.40;2.00;;;;;;;10.29;85.32;100690.72;103758;1274;22777;-59
2022/11/03 10:21:18;;;;;;;14.00;1.60;;;;;;;10.34;85.18;100686.75;103525;1285;22455;-60
2022/11/03 10:23:50;;;;;;;14.10;1.90;;;;;;;10.36;85.09;100679.40;103403;1279;22575;-59
2022/11/03 10:26:23;;;;;;;12.60;1.70;;;;;;;10.37;85.02;100672.81;103424;1278;22478;-57
2022/11/03 10:29:03;;;;;;;6.70;1.10;;;;;;;10.38;84.78;100669.71;103376;1278;24886;-60
2022/11/03 10:31:39;;;;;;;10.00;1.80;;;;;;;10.43;84.91;100663.97;103553;1295;25481;-58
2022/11/03 10:34:27;;;;;;;11.20;1.70;;;;;;;10.47;85.06;100657.63;103540;1271;22520;-59
2022/11/03 10:37:19;;;;;;;6.80;1.50;;;;;;;10.53;84.91;100657.05;103381;1278;23225;-59
2022/11/03 10:39:52;;;;;;;11.50;2.10;;;;;;;10.57;84.74;100649.93;103462;1278;22579;-61
2022/11/03 10:42:25;;;;;;;13.50;2.30;;;;;;;10.65;84.36;100647.73;103381;1278;22455;-58
2022/11/03 10:45:09;;;;;;;10.60;2.40;;;;;;;10.71;84.17;100645.13;103481;1284;22467;-58
2022/11/03 10:47:41;;;;;;;12.20;2.10;;;;;;;10.79;84.11;100633.27;103492;1285;22459;-61
2022/11/03 10:50:24;;;;;;;13.00;2.20;;;;;;;10.82;84.00;100632.55;103500;1271;22479;-61
2022/11/03 10:52:56;;;;;;;11.90;2.70;;;;;;;10.84;83.78;100630.98;103539;1300;22498;-60
2022/11/03 10:55:28;;;;;;;15.40;2.50;;;;;;;10.88;83.83;100625.38;103482;1278;25261;-61
2022/11/03 10:58:00;;;;;;;14.50;2.40;;;;;;;10.89;83.71;100621.85;103328;1278;24447;-61
2022/11/03 11:00:33;;;;;;;13.70;2.20;;;;;;;10.93;83.56;100620.22;103331;1271;22452;-62
2022/11/03 11:03:06;;;;;;;14.40;2.10;;;;;;;10.97;83.25;100610.31;103394;1279;22460;-60
2022/11/03 11:05:44;;;;;;;12.50;2.10;;;;;;;11.01;83.06;100605.21;103613;1279;22461;-60
2022/11/03 11:08:20;;;;;;;16.80;2.20;;;;;;;11.06;83.04;100602.44;103608;1277;22476;-61
2022/11/03 11:10:54;;;;;;;13.80;1.80;;;;;;;11.09;83.09;100594.23;103531;1300;22456;-62
2022/11/03 11:13:29;;;;;;;10.20;2.20;;;;;;;11.14;82.96;100588.95;103483;1278;25407;-61
2022/11/03 11:16:02;;;;;;;9.70;2.00;;;;;;;11.19;82.84;100584.64;103378;1284;22460;-60
2022/11/03 11:19:05;;;;;;;14.10;2.00;;;;;;;11.26;82.91;100575.49;103392;1278;24257;-60
2022/11/03 11:22:02;;;;;;;8.30;1.90;;;;;;;11.31;82.47;100569.46;103149;1304;325977;-61
2022/11/03 11:25:02;;;;;;;13.00;1.70;;;;;;;11.38;82.22;100567.92;103073;1282;25285;-63
2022/11/03 11:28:07;;;;;;;12.60;2.70;;;;;;;11.42;81.91;100566.13;102638;1282;25389;-61
2022/11/03 11:31:32;;;;;;;12.90;2.00;;;;;;;11.46;81.36;100563.25;102837;1311;22785;-61
2022/11/03 11:34:40;;;;;;;10.80;2.00;;;;;;;11.51;81.40;100552.89;101863;1321;22639;-61
2022/11/03 11:37:36;;;;;;;11.20;2.20;;;;;;;11.52;81.07;100542.45;101866;1292;24339;-61
2022/11/03 11:40:14;;;;;;;11.30;1.50;;;;;;;11.57;80.91;100536.89;101763;1299;24425;-62
2022/11/03 11:43:33;;;;;;;10.60;1.60;;;;;;;11.64;80.86;100537.28;101787;1299;25328;-61
2022/11/03 11:46:35;;;;;;;11.10;1.90;;;;;;;11.68;80.24;100523.91;101218;1324;22516;-60
2022/11/03 11:49:19;;;;;;;12.90;1.50;;;;;;;11.69;79.94;100519.71;101262;1301;22495;-60
2022/11/03 11:51:51;;;;;;;10.60;1.60;;;;;;;11.69;79.71;100517.04;101273;1302;25618;-60
2022/11/03 11:54:23;;;;;;;9.80;1.40;;;;;;;11.71;79.55;100510.08;101888;1312;25292;-60
2022/11/03 11:56:55;;;;;;;9.10;1.40;;;;;;;11.74;79.32;100505.58;101777;1322;22738;-59
2022/11/03 11:59:26;;;;;;;8.00;1.30;;;;;;;11.77;79.29;100504.14;101846;1318;24604;-59
2022/11/03 12:01:58;;;;;;;7.50;1.60;;;;;;;11.77;79.05;100501.55;101854;1322;27358;-59
2022/11/03 12:04:32;;;;;;;8.70;1.90;;;;;;;11.79;78.64;100496.41;102116;1305;24316;-61
2022/11/03 12:07:04;;;;;;;9.90;1.90;;;;;;;11.81;78.56;100494.91;102167;1292;22556;-59
2022/11/03 12:09:36;;;;;;;7.20;1.20;;;;;;;11.83;78.25;100488.30;102562;1288;22480;-59